sensor_id;sensor_type;location;lat;lon;timestamp;P1;durP1;ratioP1;P2;durP2;ratioP2
58581;SDS011;44361;51.476;5.700;2023-03-18T00:01:47;9.23;;;4.57;;
58581;SDS011;44361;51.476;5.700;2023-03-18T00:04:13;8.32;;;4.07;;
58581;SDS011;44361;51.476;5.700;2023-03-18T00:06:38;11.15;;;4.68;;
58581;SDS011;44361;51.476;5.700;2023-03-18T00:09:04;7.20;;;4.40;;
58581;SDS011;44361;51.476;5.700;2023-03-18T00:11:31;7.47;;;4.40;;
58581;SDS011;44361;51.476;5.700;2023-03-18T00:13:56;9.50;;;4.30;;
58581;SDS011;44361;51.476;5.700;2023-03-18T00:16:23;9.88;;;4.78;;
58581;SDS011;44361;51.476;5.700;2023-03-18T00:18:48;9.30;;;4.95;;
58581;SDS011;44361;51.476;5.700;2023-03-18T00:21:14;10.52;;;4.60;;
58581;SDS011;44361;51.476;5.700;2023-03-18T00:23:40;12.05;;;4.80;;
58581;SDS011;44361;51.476;5.700;2023-03-18T00:26:07;8.82;;;5.05;;
58581;SDS011;44361;51.476;5.700;2023-03-18T00:28:33;8.48;;;4.40;;
58581;SDS011;44361;51.476;5.700;2023-03-18T00:31:01;10.77;;;4.90;;
58581;SDS011;44361;51.476;5.700;2023-03-18T00:33:32;11.18;;;4.97;;
58581;SDS011;44361;51.476;5.700;2023-03-18T00:36:02;8.63;;;4.80;;
58581;SDS011;44361;51.476;5.700;2023-03-18T00:38:28;14.68;;;5.88;;
58581;SDS011;44361;51.476;5.700;2023-03-18T00:40:54;9.27;;;4.72;;
58581;SDS011;44361;51.476;5.700;2023-03-18T00:43:35;9.13;;;4.82;;
58581;SDS011;44361;51.476;5.700;2023-03-18T00:46:10;11.82;;;5.20;;
58581;SDS011;44361;51.476;5.700;2023-03-18T00:48:37;8.10;;;4.88;;
58581;SDS011;44361;51.476;5.700;2023-03-18T00:51:02;8.50;;;4.75;;
58581;SDS011;44361;51.476;5.700;2023-03-18T00:53:29;9.10;;;5.28;;
58581;SDS011;44361;51.476;5.700;2023-03-18T00:55:54;10.38;;;5.15;;
58581;SDS011;44361;51.476;5.700;2023-03-18T00:58:20;13.45;;;5.72;;
58581;SDS011;44361;51.476;5.700;2023-03-18T01:00:45;16.02;;;5.53;;
58581;SDS011;44361;51.476;5.700;2023-03-18T01:03:11;16.08;;;5.60;;
58581;SDS011;44361;51.476;5.700;2023-03-18T01:05:38;9.73;;;6.35;;
58581;SDS011;44361;51.476;5.700;2023-03-18T01:08:04;8.38;;;5.78;;
58581;SDS011;44361;51.476;5.700;2023-03-18T01:10:30;11.63;;;6.45;;
58581;SDS011;44361;51.476;5.700;2023-03-18T01:12:56;14.00;;;7.07;;
58581;SDS011;44361;51.476;5.700;2023-03-18T01:15:22;12.32;;;6.57;;
58581;SDS011;44361;51.476;5.700;2023-03-18T01:17:48;13.27;;;6.57;;
58581;SDS011;44361;51.476;5.700;2023-03-18T01:20:16;17.10;;;7.60;;
58581;SDS011;44361;51.476;5.700;2023-03-18T01:22:43;12.13;;;7.30;;
58581;SDS011;44361;51.476;5.700;2023-03-18T01:25:10;18.63;;;7.60;;
58581;SDS011;44361;51.476;5.700;2023-03-18T01:27:37;15.98;;;6.88;;
58581;SDS011;44361;51.476;5.700;2023-03-18T01:30:03;17.50;;;8.50;;
58581;SDS011;44361;51.476;5.700;2023-03-18T01:32:30;15.50;;;8.45;;
58581;SDS011;44361;51.476;5.700;2023-03-18T01:34:56;15.15;;;8.88;;
58581;SDS011;44361;51.476;5.700;2023-03-18T01:37:22;18.90;;;8.93;;
58581;SDS011;44361;51.476;5.700;2023-03-18T01:39:47;16.98;;;8.75;;
58581;SDS011;44361;51.476;5.700;2023-03-18T01:42:13;18.00;;;8.38;;
58581;SDS011;44361;51.476;5.700;2023-03-18T01:44:41;16.08;;;9.05;;
58581;SDS011;44361;51.476;5.700;2023-03-18T01:47:08;19.70;;;8.68;;
58581;SDS011;44361;51.476;5.700;2023-03-18T01:49:35;18.85;;;9.25;;
58581;SDS011;44361;51.476;5.700;2023-03-18T01:57:11;22.67;;;8.50;;
58581;SDS011;44361;51.476;5.700;2023-03-18T01:59:41;21.00;;;9.13;;
58581;SDS011;44361;51.476;5.700;2023-03-18T02:02:10;21.75;;;9.68;;
58581;SDS011;44361;51.476;5.700;2023-03-18T02:04:43;17.52;;;9.00;;
58581;SDS011;44361;51.476;5.700;2023-03-18T02:07:31;18.40;;;9.70;;
58581;SDS011;44361;51.476;5.700;2023-03-18T02:10:00;20.73;;;9.63;;
58581;SDS011;44361;51.476;5.700;2023-03-18T02:12:30;20.13;;;9.75;;
58581;SDS011;44361;51.476;5.700;2023-03-18T02:14:58;22.55;;;10.88;;
58581;SDS011;44361;51.476;5.700;2023-03-18T02:17:27;21.45;;;10.13;;
58581;SDS011;44361;51.476;5.700;2023-03-18T02:22:48;18.48;;;9.68;;
58581;SDS011;44361;51.476;5.700;2023-03-18T02:28:08;22.05;;;9.75;;
58581;SDS011;44361;51.476;5.700;2023-03-18T02:30:37;23.30;;;11.23;;
58581;SDS011;44361;51.476;5.700;2023-03-18T02:33:06;20.02;;;10.82;;
58581;SDS011;44361;51.476;5.700;2023-03-18T02:35:34;24.02;;;10.05;;
58581;SDS011;44361;51.476;5.700;2023-03-18T02:38:01;19.15;;;10.77;;
58581;SDS011;44361;51.476;5.700;2023-03-18T02:40:30;19.27;;;10.05;;
58581;SDS011;44361;51.476;5.700;2023-03-18T02:43:14;23.90;;;11.40;;
58581;SDS011;44361;51.476;5.700;2023-03-18T02:48:16;27.92;;;12.50;;
58581;SDS011;44361;51.476;5.700;2023-03-18T02:50:44;20.25;;;10.93;;
58581;SDS011;44361;51.476;5.700;2023-03-18T02:53:11;19.58;;;10.27;;
58581;SDS011;44361;51.476;5.700;2023-03-18T02:55:37;25.58;;;11.82;;
58581;SDS011;44361;51.476;5.700;2023-03-18T02:58:03;20.45;;;11.45;;
58581;SDS011;44361;51.476;5.700;2023-03-18T03:00:29;29.95;;;11.75;;
58581;SDS011;44361;51.476;5.700;2023-03-18T03:02:55;20.05;;;11.70;;
58581;SDS011;44361;51.476;5.700;2023-03-18T03:05:21;25.13;;;12.65;;
58581;SDS011;44361;51.476;5.700;2023-03-18T03:07:46;22.02;;;12.10;;
58581;SDS011;44361;51.476;5.700;2023-03-18T03:10:12;21.58;;;11.63;;
58581;SDS011;44361;51.476;5.700;2023-03-18T03:12:38;25.85;;;12.70;;
58581;SDS011;44361;51.476;5.700;2023-03-18T03:15:05;22.70;;;12.48;;
58581;SDS011;44361;51.476;5.700;2023-03-18T03:17:32;26.95;;;12.25;;
58581;SDS011;44361;51.476;5.700;2023-03-18T03:19:58;19.75;;;12.23;;
58581;SDS011;44361;51.476;5.700;2023-03-18T03:22:24;27.13;;;13.02;;
58581;SDS011;44361;51.476;5.700;2023-03-18T03:24:51;23.27;;;12.68;;
58581;SDS011;44361;51.476;5.700;2023-03-18T03:27:17;25.25;;;12.35;;
58581;SDS011;44361;51.476;5.700;2023-03-18T03:29:43;31.27;;;13.38;;
58581;SDS011;44361;51.476;5.700;2023-03-18T03:32:09;24.33;;;11.90;;
58581;SDS011;44361;51.476;5.700;2023-03-18T03:34:35;26.75;;;14.10;;
58581;SDS011;44361;51.476;5.700;2023-03-18T03:37:01;24.90;;;12.13;;
58581;SDS011;44361;51.476;5.700;2023-03-18T03:39:27;27.73;;;13.38;;
58581;SDS011;44361;51.476;5.700;2023-03-18T03:41:53;29.00;;;13.18;;
58581;SDS011;44361;51.476;5.700;2023-03-18T03:44:18;25.23;;;13.30;;
58581;SDS011;44361;51.476;5.700;2023-03-18T03:46:44;26.67;;;12.57;;
58581;SDS011;44361;51.476;5.700;2023-03-18T03:49:10;27.63;;;14.32;;
58581;SDS011;44361;51.476;5.700;2023-03-18T03:51:36;26.70;;;14.10;;
58581;SDS011;44361;51.476;5.700;2023-03-18T03:54:02;34.20;;;16.00;;
58581;SDS011;44361;51.476;5.700;2023-03-18T03:56:27;26.92;;;14.82;;
58581;SDS011;44361;51.476;5.700;2023-03-18T03:58:55;25.48;;;14.48;;
58581;SDS011;44361;51.476;5.700;2023-03-18T04:01:21;24.42;;;14.57;;
58581;SDS011;44361;51.476;5.700;2023-03-18T04:03:47;26.65;;;14.40;;
58581;SDS011;44361;51.476;5.700;2023-03-18T04:06:13;25.52;;;13.48;;
58581;SDS011;44361;51.476;5.700;2023-03-18T04:08:39;28.35;;;14.38;;
58581;SDS011;44361;51.476;5.700;2023-03-18T04:11:05;28.13;;;14.10;;
58581;SDS011;44361;51.476;5.700;2023-03-18T04:13:31;27.67;;;13.98;;
58581;SDS011;44361;51.476;5.700;2023-03-18T04:15:58;24.25;;;13.75;;
58581;SDS011;44361;51.476;5.700;2023-03-18T04:18:24;24.67;;;13.32;;
58581;SDS011;44361;51.476;5.700;2023-03-18T04:20:50;27.45;;;14.13;;
58581;SDS011;44361;51.476;5.700;2023-03-18T04:23:15;25.83;;;13.80;;
58581;SDS011;44361;51.476;5.700;2023-03-18T04:25:41;25.52;;;13.55;;
58581;SDS011;44361;51.476;5.700;2023-03-18T04:28:07;23.58;;;12.40;;
58581;SDS011;44361;51.476;5.700;2023-03-18T04:30:33;25.10;;;12.30;;
58581;SDS011;44361;51.476;5.700;2023-03-18T04:32:58;20.85;;;12.40;;
58581;SDS011;44361;51.476;5.700;2023-03-18T04:35:26;25.88;;;13.63;;
58581;SDS011;44361;51.476;5.700;2023-03-18T04:37:52;24.98;;;12.95;;
58581;SDS011;44361;51.476;5.700;2023-03-18T04:40:19;24.20;;;13.38;;
58581;SDS011;44361;51.476;5.700;2023-03-18T04:42:45;26.23;;;13.65;;
58581;SDS011;44361;51.476;5.700;2023-03-18T04:45:12;23.90;;;12.93;;
58581;SDS011;44361;51.476;5.700;2023-03-18T04:47:39;23.63;;;12.82;;
58581;SDS011;44361;51.476;5.700;2023-03-18T04:50:06;23.95;;;13.27;;
58581;SDS011;44361;51.476;5.700;2023-03-18T04:52:35;23.92;;;12.98;;
58581;SDS011;44361;51.476;5.700;2023-03-18T04:55:01;25.35;;;12.75;;
58581;SDS011;44361;51.476;5.700;2023-03-18T04:57:27;29.58;;;13.85;;
58581;SDS011;44361;51.476;5.700;2023-03-18T04:59:53;21.95;;;12.68;;
58581;SDS011;44361;51.476;5.700;2023-03-18T05:02:18;27.13;;;13.80;;
58581;SDS011;44361;51.476;5.700;2023-03-18T05:04:44;24.85;;;13.85;;
58581;SDS011;44361;51.476;5.700;2023-03-18T05:07:13;26.77;;;13.57;;
58581;SDS011;44361;51.476;5.700;2023-03-18T05:09:40;29.20;;;12.77;;
58581;SDS011;44361;51.476;5.700;2023-03-18T05:12:10;26.35;;;12.70;;
58581;SDS011;44361;51.476;5.700;2023-03-18T05:14:40;24.95;;;13.35;;
58581;SDS011;44361;51.476;5.700;2023-03-18T05:17:06;29.05;;;13.30;;
58581;SDS011;44361;51.476;5.700;2023-03-18T05:19:32;26.05;;;12.93;;
58581;SDS011;44361;51.476;5.700;2023-03-18T05:21:58;24.92;;;12.50;;
58581;SDS011;44361;51.476;5.700;2023-03-18T05:24:24;23.05;;;12.02;;
58581;SDS011;44361;51.476;5.700;2023-03-18T05:26:50;23.30;;;12.00;;
58581;SDS011;44361;51.476;5.700;2023-03-18T05:29:15;25.08;;;13.45;;
58581;SDS011;44361;51.476;5.700;2023-03-18T05:31:41;25.35;;;12.82;;
58581;SDS011;44361;51.476;5.700;2023-03-18T05:34:07;24.15;;;12.32;;
58581;SDS011;44361;51.476;5.700;2023-03-18T05:36:33;23.50;;;12.52;;
58581;SDS011;44361;51.476;5.700;2023-03-18T05:38:58;22.73;;;12.95;;
58581;SDS011;44361;51.476;5.700;2023-03-18T05:41:24;25.17;;;12.80;;
58581;SDS011;44361;51.476;5.700;2023-03-18T05:43:50;22.80;;;12.80;;
58581;SDS011;44361;51.476;5.700;2023-03-18T05:46:15;22.98;;;12.63;;
58581;SDS011;44361;51.476;5.700;2023-03-18T05:48:41;27.75;;;12.65;;
58581;SDS011;44361;51.476;5.700;2023-03-18T05:51:07;24.88;;;12.48;;
58581;SDS011;44361;51.476;5.700;2023-03-18T05:53:33;26.33;;;13.60;;
58581;SDS011;44361;51.476;5.700;2023-03-18T05:55:59;23.00;;;12.98;;
58581;SDS011;44361;51.476;5.700;2023-03-18T05:58:25;22.10;;;11.88;;
58581;SDS011;44361;51.476;5.700;2023-03-18T06:00:55;24.65;;;12.88;;
58581;SDS011;44361;51.476;5.700;2023-03-18T06:03:21;25.92;;;13.05;;
58581;SDS011;44361;51.476;5.700;2023-03-18T06:05:48;26.17;;;13.35;;
58581;SDS011;44361;51.476;5.700;2023-03-18T06:08:14;28.60;;;12.65;;
58581;SDS011;44361;51.476;5.700;2023-03-18T06:10:41;28.88;;;13.05;;
58581;SDS011;44361;51.476;5.700;2023-03-18T06:13:08;22.90;;;12.38;;
58581;SDS011;44361;51.476;5.700;2023-03-18T06:15:35;23.13;;;12.88;;
58581;SDS011;44361;51.476;5.700;2023-03-18T06:18:02;27.50;;;12.20;;
58581;SDS011;44361;51.476;5.700;2023-03-18T06:20:28;26.45;;;12.48;;
58581;SDS011;44361;51.476;5.700;2023-03-18T06:22:54;22.17;;;12.65;;
58581;SDS011;44361;51.476;5.700;2023-03-18T06:25:20;23.27;;;12.43;;
58581;SDS011;44361;51.476;5.700;2023-03-18T06:27:47;24.33;;;12.43;;
58581;SDS011;44361;51.476;5.700;2023-03-18T06:30:14;22.63;;;12.20;;
58581;SDS011;44361;51.476;5.700;2023-03-18T06:32:41;21.75;;;12.35;;
58581;SDS011;44361;51.476;5.700;2023-03-18T06:35:07;21.63;;;11.80;;
58581;SDS011;44361;51.476;5.700;2023-03-18T06:37:34;24.67;;;11.45;;
58581;SDS011;44361;51.476;5.700;2023-03-18T06:40:00;23.95;;;12.85;;
58581;SDS011;44361;51.476;5.700;2023-03-18T06:42:26;27.42;;;12.93;;
58581;SDS011;44361;51.476;5.700;2023-03-18T06:44:51;22.58;;;12.02;;
58581;SDS011;44361;51.476;5.700;2023-03-18T06:47:19;24.08;;;12.10;;
58581;SDS011;44361;51.476;5.700;2023-03-18T06:49:48;25.02;;;12.45;;
58581;SDS011;44361;51.476;5.700;2023-03-18T06:52:15;26.17;;;12.55;;
58581;SDS011;44361;51.476;5.700;2023-03-18T06:54:42;26.45;;;13.57;;
58581;SDS011;44361;51.476;5.700;2023-03-18T06:57:08;23.88;;;13.00;;
58581;SDS011;44361;51.476;5.700;2023-03-18T06:59:34;26.73;;;12.90;;
58581;SDS011;44361;51.476;5.700;2023-03-18T07:02:00;25.02;;;13.77;;
58581;SDS011;44361;51.476;5.700;2023-03-18T07:04:26;29.30;;;14.57;;
58581;SDS011;44361;51.476;5.700;2023-03-18T07:06:52;22.48;;;13.40;;
58581;SDS011;44361;51.476;5.700;2023-03-18T07:09:18;24.88;;;13.13;;
58581;SDS011;44361;51.476;5.700;2023-03-18T07:11:44;28.38;;;14.57;;
58581;SDS011;44361;51.476;5.700;2023-03-18T07:14:12;21.63;;;13.18;;
58581;SDS011;44361;51.476;5.700;2023-03-18T07:16:38;22.77;;;13.57;;
58581;SDS011;44361;51.476;5.700;2023-03-18T07:19:04;26.52;;;13.35;;
58581;SDS011;44361;51.476;5.700;2023-03-18T07:21:31;23.38;;;13.43;;
58581;SDS011;44361;51.476;5.700;2023-03-18T07:23:56;23.73;;;13.68;;
58581;SDS011;44361;51.476;5.700;2023-03-18T07:26:22;26.90;;;13.88;;
58581;SDS011;44361;51.476;5.700;2023-03-18T07:28:48;23.15;;;12.57;;
58581;SDS011;44361;51.476;5.700;2023-03-18T07:31:13;21.95;;;12.93;;
58581;SDS011;44361;51.476;5.700;2023-03-18T07:33:40;25.40;;;12.85;;
58581;SDS011;44361;51.476;5.700;2023-03-18T07:36:06;25.00;;;12.93;;
58581;SDS011;44361;51.476;5.700;2023-03-18T07:38:32;21.25;;;13.23;;
58581;SDS011;44361;51.476;5.700;2023-03-18T07:40:58;22.80;;;12.38;;
58581;SDS011;44361;51.476;5.700;2023-03-18T07:43:23;22.70;;;12.15;;
58581;SDS011;44361;51.476;5.700;2023-03-18T07:45:49;22.00;;;12.57;;
58581;SDS011;44361;51.476;5.700;2023-03-18T07:48:14;22.63;;;11.13;;
58581;SDS011;44361;51.476;5.700;2023-03-18T07:50:40;22.25;;;11.70;;
58581;SDS011;44361;51.476;5.700;2023-03-18T07:53:06;19.50;;;11.65;;
58581;SDS011;44361;51.476;5.700;2023-03-18T07:55:31;18.63;;;11.40;;
58581;SDS011;44361;51.476;5.700;2023-03-18T07:57:57;18.00;;;10.98;;
58581;SDS011;44361;51.476;5.700;2023-03-18T08:00:23;16.38;;;9.23;;
58581;SDS011;44361;51.476;5.700;2023-03-18T08:02:49;17.98;;;10.10;;
58581;SDS011;44361;51.476;5.700;2023-03-18T08:05:15;15.60;;;9.30;;
58581;SDS011;44361;51.476;5.700;2023-03-18T08:07:43;14.85;;;9.77;;
58581;SDS011;44361;51.476;5.700;2023-03-18T08:10:08;17.95;;;10.23;;
58581;SDS011;44361;51.476;5.700;2023-03-18T08:12:35;18.75;;;9.35;;
58581;SDS011;44361;51.476;5.700;2023-03-18T08:15:01;15.13;;;9.77;;
58581;SDS011;44361;51.476;5.700;2023-03-18T08:17:28;16.92;;;9.50;;
58581;SDS011;44361;51.476;5.700;2023-03-18T08:19:54;21.83;;;9.90;;
58581;SDS011;44361;51.476;5.700;2023-03-18T08:22:20;19.48;;;10.63;;
58581;SDS011;44361;51.476;5.700;2023-03-18T08:24:48;17.67;;;9.25;;
58581;SDS011;44361;51.476;5.700;2023-03-18T08:27:14;17.33;;;9.38;;
58581;SDS011;44361;51.476;5.700;2023-03-18T08:29:39;17.35;;;9.15;;
58581;SDS011;44361;51.476;5.700;2023-03-18T08:32:05;16.85;;;9.85;;
58581;SDS011;44361;51.476;5.700;2023-03-18T08:34:31;13.77;;;8.20;;
58581;SDS011;44361;51.476;5.700;2023-03-18T08:36:57;20.25;;;8.02;;
58581;SDS011;44361;51.476;5.700;2023-03-18T08:39:23;12.05;;;8.20;;
58581;SDS011;44361;51.476;5.700;2023-03-18T08:41:49;11.85;;;7.85;;
58581;SDS011;44361;51.476;5.700;2023-03-18T08:44:14;13.35;;;7.13;;
58581;SDS011;44361;51.476;5.700;2023-03-18T08:46:40;18.15;;;8.13;;
58581;SDS011;44361;51.476;5.700;2023-03-18T08:49:06;14.63;;;8.38;;
58581;SDS011;44361;51.476;5.700;2023-03-18T08:51:32;12.95;;;7.57;;
58581;SDS011;44361;51.476;5.700;2023-03-18T08:53:58;9.18;;;6.70;;
58581;SDS011;44361;51.476;5.700;2023-03-18T08:56:24;9.45;;;5.90;;
58581;SDS011;44361;51.476;5.700;2023-03-18T08:58:50;13.05;;;6.50;;
58581;SDS011;44361;51.476;5.700;2023-03-18T09:01:16;12.27;;;7.05;;
58581;SDS011;44361;51.476;5.700;2023-03-18T09:03:43;12.85;;;6.75;;
58581;SDS011;44361;51.476;5.700;2023-03-18T09:06:09;10.00;;;6.60;;
58581;SDS011;44361;51.476;5.700;2023-03-18T09:08:34;12.70;;;7.00;;
58581;SDS011;44361;51.476;5.700;2023-03-18T09:11:00;9.98;;;6.03;;
58581;SDS011;44361;51.476;5.700;2023-03-18T09:13:26;12.48;;;6.30;;
58581;SDS011;44361;51.476;5.700;2023-03-18T09:15:52;12.90;;;6.57;;
58581;SDS011;44361;51.476;5.700;2023-03-18T09:18:18;10.50;;;6.22;;
58581;SDS011;44361;51.476;5.700;2023-03-18T09:20:44;13.20;;;6.78;;
58581;SDS011;44361;51.476;5.700;2023-03-18T09:23:10;8.52;;;5.00;;
58581;SDS011;44361;51.476;5.700;2023-03-18T09:25:38;9.30;;;5.55;;
58581;SDS011;44361;51.476;5.700;2023-03-18T09:28:04;11.32;;;5.43;;
58581;SDS011;44361;51.476;5.700;2023-03-18T09:30:30;10.77;;;5.70;;
58581;SDS011;44361;51.476;5.700;2023-03-18T09:32:56;9.57;;;5.45;;
58581;SDS011;44361;51.476;5.700;2023-03-18T09:35:22;8.50;;;4.93;;
58581;SDS011;44361;51.476;5.700;2023-03-18T09:37:48;9.40;;;5.20;;
58581;SDS011;44361;51.476;5.700;2023-03-18T09:40:15;10.40;;;4.93;;
58581;SDS011;44361;51.476;5.700;2023-03-18T09:45:33;6.93;;;4.40;;
58581;SDS011;44361;51.476;5.700;2023-03-18T09:48:28;7.45;;;4.60;;
58581;SDS011;44361;51.476;5.700;2023-03-18T09:51:22;6.10;;;4.03;;
58581;SDS011;44361;51.476;5.700;2023-03-18T09:54:03;8.10;;;4.45;;
58581;SDS011;44361;51.476;5.700;2023-03-18T09:56:39;6.88;;;4.32;;
58581;SDS011;44361;51.476;5.700;2023-03-18T09:59:14;6.82;;;3.53;;
58581;SDS011;44361;51.476;5.700;2023-03-18T10:01:44;7.70;;;3.30;;
58581;SDS011;44361;51.476;5.700;2023-03-18T10:06:43;5.22;;;3.38;;
58581;SDS011;44361;51.476;5.700;2023-03-18T10:09:17;6.88;;;3.28;;
58581;SDS011;44361;51.476;5.700;2023-03-18T10:11:57;6.15;;;3.78;;
58581;SDS011;44361;51.476;5.700;2023-03-18T10:14:33;5.18;;;3.28;;
58581;SDS011;44361;51.476;5.700;2023-03-18T10:17:17;5.15;;;3.47;;
58581;SDS011;44361;51.476;5.700;2023-03-18T10:19:48;6.88;;;3.90;;
58581;SDS011;44361;51.476;5.700;2023-03-18T10:22:31;5.93;;;2.78;;
58581;SDS011;44361;51.476;5.700;2023-03-18T10:27:54;5.18;;;2.80;;
58581;SDS011;44361;51.476;5.700;2023-03-18T10:33:44;4.28;;;2.13;;
58581;SDS011;44361;51.476;5.700;2023-03-18T10:36:41;3.33;;;1.80;;
58581;SDS011;44361;51.476;5.700;2023-03-18T10:39:16;3.50;;;1.70;;
58581;SDS011;44361;51.476;5.700;2023-03-18T10:41:48;3.67;;;1.55;;
58581;SDS011;44361;51.476;5.700;2023-03-18T10:44:28;4.43;;;2.15;;
58581;SDS011;44361;51.476;5.700;2023-03-18T10:47:43;3.05;;;1.55;;
58581;SDS011;44361;51.476;5.700;2023-03-18T10:49:49;3.47;;;1.85;;
58581;SDS011;44361;51.476;5.700;2023-03-18T10:55:17;3.53;;;1.40;;
58581;SDS011;44361;51.476;5.700;2023-03-18T10:57:46;3.58;;;1.58;;
58581;SDS011;44361;51.476;5.700;2023-03-18T11:00:31;4.03;;;1.60;;
58581;SDS011;44361;51.476;5.700;2023-03-18T11:02:57;2.92;;;1.80;;
58581;SDS011;44361;51.476;5.700;2023-03-18T11:07:58;2.65;;;1.52;;
58581;SDS011;44361;51.476;5.700;2023-03-18T11:10:27;3.38;;;1.33;;
58581;SDS011;44361;51.476;5.700;2023-03-18T11:12:58;3.58;;;1.50;;
58581;SDS011;44361;51.476;5.700;2023-03-18T11:15:28;2.95;;;1.60;;
58581;SDS011;44361;51.476;5.700;2023-03-18T11:18:00;3.63;;;1.38;;
58581;SDS011;44361;51.476;5.700;2023-03-18T11:20:34;3.65;;;1.05;;
58581;SDS011;44361;51.476;5.700;2023-03-18T11:23:14;2.78;;;1.45;;
58581;SDS011;44361;51.476;5.700;2023-03-18T11:26:00;2.50;;;0.80;;
58581;SDS011;44361;51.476;5.700;2023-03-18T11:28:27;3.05;;;1.20;;
58581;SDS011;44361;51.476;5.700;2023-03-18T11:30:54;1.77;;;1.00;;
58581;SDS011;44361;51.476;5.700;2023-03-18T11:33:28;2.53;;;1.02;;
58581;SDS011;44361;51.476;5.700;2023-03-18T11:35:57;1.58;;;0.90;;
58581;SDS011;44361;51.476;5.700;2023-03-18T11:38:27;2.92;;;1.40;;
58581;SDS011;44361;51.476;5.700;2023-03-18T11:41:04;3.55;;;1.52;;
58581;SDS011;44361;51.476;5.700;2023-03-18T11:43:32;3.60;;;1.20;;
58581;SDS011;44361;51.476;5.700;2023-03-18T11:45:59;3.47;;;1.70;;
58581;SDS011;44361;51.476;5.700;2023-03-18T11:48:29;3.03;;;1.25;;
58581;SDS011;44361;51.476;5.700;2023-03-18T11:53:52;2.47;;;1.40;;
58581;SDS011;44361;51.476;5.700;2023-03-18T12:13:49;5.32;;;1.55;;
58581;SDS011;44361;51.476;5.700;2023-03-18T12:16:38;3.33;;;1.45;;
58581;SDS011;44361;51.476;5.700;2023-03-18T12:22:41;4.15;;;1.70;;
58581;SDS011;44361;51.476;5.700;2023-03-18T12:25:33;4.28;;;2.10;;
58581;SDS011;44361;51.476;5.700;2023-03-18T12:33:59;4.97;;;1.27;;
58581;SDS011;44361;51.476;5.700;2023-03-18T12:42:10;3.47;;;1.08;;
58581;SDS011;44361;51.476;5.700;2023-03-18T12:47:24;6.53;;;1.30;;
58581;SDS011;44361;51.476;5.700;2023-03-18T12:53:13;3.15;;;1.17;;
58581;SDS011;44361;51.476;5.700;2023-03-18T12:55:45;3.15;;;1.20;;
58581;SDS011;44361;51.476;5.700;2023-03-18T13:00:44;1.98;;;0.98;;
58581;SDS011;44361;51.476;5.700;2023-03-18T13:03:34;2.00;;;1.13;;
58581;SDS011;44361;51.476;5.700;2023-03-18T13:06:06;3.22;;;1.08;;
58581;SDS011;44361;51.476;5.700;2023-03-18T13:11:30;3.30;;;1.10;;
58581;SDS011;44361;51.476;5.700;2023-03-18T13:16:51;3.97;;;1.75;;
58581;SDS011;44361;51.476;5.700;2023-03-18T13:19:18;1.40;;;0.93;;
58581;SDS011;44361;51.476;5.700;2023-03-18T13:21:45;2.55;;;0.77;;
58581;SDS011;44361;51.476;5.700;2023-03-18T13:24:19;1.90;;;1.20;;
58581;SDS011;44361;51.476;5.700;2023-03-18T13:29:39;1.00;;;0.52;;
58581;SDS011;44361;51.476;5.700;2023-03-18T13:32:18;2.42;;;0.63;;
58581;SDS011;44361;51.476;5.700;2023-03-18T13:43:09;1.08;;;0.55;;
58581;SDS011;44361;51.476;5.700;2023-03-18T13:45:39;1.92;;;0.80;;
58581;SDS011;44361;51.476;5.700;2023-03-18T13:48:11;2.05;;;1.00;;
58581;SDS011;44361;51.476;5.700;2023-03-18T13:50:44;1.08;;;0.70;;
58581;SDS011;44361;51.476;5.700;2023-03-18T13:53:30;4.40;;;1.20;;
58581;SDS011;44361;51.476;5.700;2023-03-18T13:55:59;6.20;;;0.95;;
58581;SDS011;44361;51.476;5.700;2023-03-18T13:58:35;3.10;;;0.80;;
58581;SDS011;44361;51.476;5.700;2023-03-18T14:01:25;3.63;;;1.23;;
58581;SDS011;44361;51.476;5.700;2023-03-18T14:07:14;1.35;;;0.68;;
58581;SDS011;44361;51.476;5.700;2023-03-18T14:14:55;1.45;;;1.00;;
58581;SDS011;44361;51.476;5.700;2023-03-18T14:17:31;2.35;;;1.13;;
58581;SDS011;44361;51.476;5.700;2023-03-18T14:22:43;3.22;;;0.90;;
58581;SDS011;44361;51.476;5.700;2023-03-18T14:27:46;2.00;;;0.70;;
58581;SDS011;44361;51.476;5.700;2023-03-18T14:33:03;4.15;;;0.85;;
58581;SDS011;44361;51.476;5.700;2023-03-18T14:35:45;4.85;;;0.80;;
58581;SDS011;44361;51.476;5.700;2023-03-18T14:38:21;1.95;;;0.70;;
58581;SDS011;44361;51.476;5.700;2023-03-18T14:40:50;1.38;;;0.65;;
58581;SDS011;44361;51.476;5.700;2023-03-18T14:43:35;2.42;;;1.00;;
58581;SDS011;44361;51.476;5.700;2023-03-18T14:46:07;1.08;;;0.43;;
58581;SDS011;44361;51.476;5.700;2023-03-18T14:48:42;1.70;;;0.80;;
58581;SDS011;44361;51.476;5.700;2023-03-18T14:51:13;1.80;;;0.90;;
58581;SDS011;44361;51.476;5.700;2023-03-18T14:53:43;3.70;;;1.07;;
58581;SDS011;44361;51.476;5.700;2023-03-18T14:56:17;2.15;;;1.13;;
58581;SDS011;44361;51.476;5.700;2023-03-18T14:58:45;2.30;;;1.00;;
58581;SDS011;44361;51.476;5.700;2023-03-18T15:01:12;2.10;;;1.08;;
58581;SDS011;44361;51.476;5.700;2023-03-18T15:03:41;4.00;;;0.90;;
58581;SDS011;44361;51.476;5.700;2023-03-18T15:06:11;4.53;;;1.15;;
58581;SDS011;44361;51.476;5.700;2023-03-18T15:09:00;1.50;;;0.80;;
58581;SDS011;44361;51.476;5.700;2023-03-18T15:11:29;5.18;;;0.90;;
58581;SDS011;44361;51.476;5.700;2023-03-18T15:14:00;2.45;;;0.70;;
58581;SDS011;44361;51.476;5.700;2023-03-18T15:16:27;3.08;;;1.10;;
58581;SDS011;44361;51.476;5.700;2023-03-18T15:18:56;2.47;;;1.00;;
58581;SDS011;44361;51.476;5.700;2023-03-18T15:21:29;2.53;;;1.00;;
58581;SDS011;44361;51.476;5.700;2023-03-18T15:23:59;2.90;;;1.17;;
58581;SDS011;44361;51.476;5.700;2023-03-18T15:26:35;1.75;;;1.05;;
58581;SDS011;44361;51.476;5.700;2023-03-18T15:31:48;3.17;;;1.40;;
58581;SDS011;44361;51.476;5.700;2023-03-18T15:34:30;0.95;;;0.70;;
58581;SDS011;44361;51.476;5.700;2023-03-18T15:36:58;3.70;;;1.02;;
58581;SDS011;44361;51.476;5.700;2023-03-18T15:42:01;5.35;;;1.80;;
58581;SDS011;44361;51.476;5.700;2023-03-18T15:44:37;2.20;;;1.10;;
58581;SDS011;44361;51.476;5.700;2023-03-18T15:47:14;2.20;;;1.02;;
58581;SDS011;44361;51.476;5.700;2023-03-18T15:49:51;2.60;;;1.05;;
58581;SDS011;44361;51.476;5.700;2023-03-18T15:52:23;2.63;;;1.13;;
58581;SDS011;44361;51.476;5.700;2023-03-18T15:54:50;2.28;;;0.82;;
58581;SDS011;44361;51.476;5.700;2023-03-18T15:57:24;2.53;;;0.63;;
58581;SDS011;44361;51.476;5.700;2023-03-18T15:59:56;3.45;;;0.68;;
58581;SDS011;44361;51.476;5.700;2023-03-18T16:02:22;4.05;;;0.85;;
58581;SDS011;44361;51.476;5.700;2023-03-18T16:04:48;0.63;;;0.45;;
58581;SDS011;44361;51.476;5.700;2023-03-18T16:07:18;1.98;;;0.63;;
58581;SDS011;44361;51.476;5.700;2023-03-18T16:09:47;1.90;;;0.60;;
58581;SDS011;44361;51.476;5.700;2023-03-18T16:12:17;1.73;;;0.70;;
58581;SDS011;44361;51.476;5.700;2023-03-18T16:14:45;2.20;;;0.65;;
58581;SDS011;44361;51.476;5.700;2023-03-18T16:17:12;0.95;;;0.38;;
58581;SDS011;44361;51.476;5.700;2023-03-18T16:19:39;1.55;;;0.68;;
58581;SDS011;44361;51.476;5.700;2023-03-18T16:22:05;4.00;;;0.70;;
58581;SDS011;44361;51.476;5.700;2023-03-18T16:24:32;2.17;;;0.85;;
58581;SDS011;44361;51.476;5.700;2023-03-18T16:26:58;1.48;;;0.50;;
58581;SDS011;44361;51.476;5.700;2023-03-18T16:29:28;2.13;;;0.70;;
58581;SDS011;44361;51.476;5.700;2023-03-18T16:31:55;0.82;;;0.50;;
58581;SDS011;44361;51.476;5.700;2023-03-18T16:34:21;1.33;;;0.40;;
58581;SDS011;44361;51.476;5.700;2023-03-18T16:36:47;2.75;;;0.50;;
58581;SDS011;44361;51.476;5.700;2023-03-18T16:39:16;2.22;;;0.45;;